GBETA EGNH-EGPB
Flight info
| Callsign | GBETA |
|---|---|
| Flight time | 1h 14m |
| Altitude | 40000 |
| Route | SHAPP DCT IPSAD DCT NAXIL DCT SMOKI DCT KOKAL |
| Aircraft | CL60/M-SBDE1E2E3FGHIJ1J4J5J7M3RWXYZ/LB1V1D1 |
Departure
| Time | 2026-04-20 10:23 |
|---|---|
| Airport | Blackpool Airport (EGNH) |
Arrival
| Time | 2026-04-20 11:37 |
|---|---|
| Airport | Sumburgh Airport (EGPB) |
| Time | Latitude | Longitude | Altitude | Speed | Heading |
|---|---|---|---|---|---|
| 2026-04-20 09:57 | 53.77739 | -3.04328 | 41 ft | 0 kts | 265° |
| 2026-04-20 10:13 | 53.77745 | -3.04348 | 41 ft | 6 kts | 322° |
| 2026-04-20 10:14 | 53.77765 | -3.04342 | 41 ft | 4 kts | 57° |
| 2026-04-20 10:14 | 53.77755 | -3.04308 | 41 ft | 3 kts | 173° |
| 2026-04-20 10:14 | 53.77712 | -3.04306 | 42 ft | 8 kts | 180° |
| 2026-04-20 10:14 | 53.77681 | -3.04248 | 42 ft | 5 kts | 102° |
| 2026-04-20 10:15 | 53.77678 | -3.04170 | 44 ft | 7 kts | 76° |
| 2026-04-20 10:15 | 53.77712 | -3.04093 | 46 ft | 9 kts | 36° |
| 2026-04-20 10:15 | 53.77764 | -3.04004 | 48 ft | 12 kts | 71° |
| 2026-04-20 10:15 | 53.77793 | -3.03831 | 46 ft | 18 kts | 73° |
| 2026-04-20 10:16 | 53.77808 | -3.03716 | 45 ft | 10 kts | 95° |
| 2026-04-20 10:16 | 53.77764 | -3.03633 | 43 ft | 10 kts | 163° |
| 2026-04-20 10:16 | 53.77697 | -3.03601 | 42 ft | 10 kts | 163° |
| 2026-04-20 10:16 | 53.77630 | -3.03566 | 40 ft | 9 kts | 164° |
| 2026-04-20 10:17 | 53.77566 | -3.03545 | 40 ft | 8 kts | 177° |
| 2026-04-20 10:17 | 53.77512 | -3.03553 | 40 ft | 6 kts | 188° |
| 2026-04-20 10:17 | 53.77476 | -3.03562 | 41 ft | 4 kts | 188° |
| 2026-04-20 10:17 | 53.77449 | -3.03568 | 41 ft | 5 kts | 189° |
| 2026-04-20 10:18 | 53.77428 | -3.03574 | 42 ft | 7 kts | 188° |
| 2026-04-20 10:18 | 53.77401 | -3.03577 | 42 ft | 9 kts | 165° |
| 2026-04-20 10:18 | 53.77387 | -3.03561 | 42 ft | 8 kts | 132° |
| 2026-04-20 10:18 | 53.77401 | -3.03447 | 41 ft | 12 kts | 68° |
| 2026-04-20 10:19 | 53.77430 | -3.03337 | 41 ft | 16 kts | 64° |
| 2026-04-20 10:19 | 53.77452 | -3.03237 | 40 ft | 12 kts | 72° |
| 2026-04-20 10:19 | 53.77470 | -3.03131 | 39 ft | 6 kts | 102° |
| 2026-04-20 10:19 | 53.77442 | -3.03098 | 40 ft | 6 kts | 165° |
| 2026-04-20 10:20 | 53.77387 | -3.03072 | 40 ft | 9 kts | 159° |
| 2026-04-20 10:20 | 53.77306 | -3.03031 | 40 ft | 14 kts | 160° |
| 2026-04-20 10:20 | 53.77191 | -3.02970 | 38 ft | 20 kts | 159° |
| 2026-04-20 10:20 | 53.77156 | -3.02818 | 37 ft | 16 kts | 96° |
| 2026-04-20 10:21 | 53.77144 | -3.02595 | 36 ft | 21 kts | 95° |
| 2026-04-20 10:21 | 53.77128 | -3.02317 | 35 ft | 25 kts | 96° |
| 2026-04-20 10:21 | 53.77113 | -3.02023 | 35 ft | 24 kts | 93° |
| 2026-04-20 10:21 | 53.77101 | -3.01718 | 36 ft | 27 kts | 93° |
| 2026-04-20 10:22 | 53.77101 | -3.01507 | 38 ft | 8 kts | 62° |
| 2026-04-20 10:22 | 53.77084 | -3.01489 | 38 ft | 2 kts | 275° |
| 2026-04-20 10:22 | 53.77099 | -3.01753 | 36 ft | 68 kts | 274° |
| 2026-04-20 10:22 | 53.77168 | -3.03141 | 139 ft | 155 kts | 274° |
| 2026-04-20 10:23 | 53.77255 | -3.05075 | 978 ft | 176 kts | 273° |
| 2026-04-20 10:23 | 53.77345 | -3.07158 | 2026 ft | 193 kts | 275° |
| 2026-04-20 10:23 | 53.77452 | -3.09475 | 3216 ft | 209 kts | 275° |
| 2026-04-20 10:23 | 53.77772 | -3.11800 | 4616 ft | 213 kts | 299° |
| 2026-04-20 10:24 | 53.78717 | -3.13598 | 5948 ft | 216 kts | 331° |
| 2026-04-20 10:24 | 53.80112 | -3.14263 | 7202 ft | 221 kts | 5° |
| 2026-04-20 10:24 | 53.81670 | -3.13510 | 7925 ft | 252 kts | 26° |
| 2026-04-20 10:24 | 53.83296 | -3.12230 | 9061 ft | 267 kts | 26° |
| 2026-04-20 10:25 | 53.84990 | -3.10912 | 10347 ft | 275 kts | 24° |
| 2026-04-20 10:25 | 53.86720 | -3.09618 | 11648 ft | 280 kts | 23° |
| 2026-04-20 10:25 | 53.88484 | -3.08303 | 12909 ft | 285 kts | 23° |
| 2026-04-20 10:25 | 53.90289 | -3.06961 | 14131 ft | 290 kts | 22° |
| 2026-04-20 10:26 | 53.92138 | -3.05588 | 15318 ft | 294 kts | 22° |
| 2026-04-20 10:26 | 53.94006 | -3.04204 | 16445 ft | 298 kts | 22° |
| 2026-04-20 10:26 | 53.95905 | -3.02800 | 17522 ft | 303 kts | 22° |
| 2026-04-20 10:26 | 53.97821 | -3.01387 | 18538 ft | 307 kts | 21° |
| 2026-04-20 10:27 | 53.99764 | -2.99954 | 19530 ft | 311 kts | 22° |
| 2026-04-20 10:27 | 54.01763 | -2.98478 | 20364 ft | 317 kts | 21° |
| 2026-04-20 10:27 | 54.03783 | -2.96988 | 21238 ft | 322 kts | 21° |
| 2026-04-20 10:27 | 54.05857 | -2.95457 | 22134 ft | 328 kts | 21° |
| 2026-04-20 10:28 | 54.07943 | -2.93916 | 23087 ft | 332 kts | 20° |
| 2026-04-20 10:28 | 54.10079 | -2.92338 | 23998 ft | 336 kts | 21° |
| 2026-04-20 10:28 | 54.12213 | -2.90760 | 24884 ft | 339 kts | 20° |
| 2026-04-20 10:28 | 54.14381 | -2.89154 | 25644 ft | 343 kts | 20° |
| 2026-04-20 10:29 | 54.16566 | -2.87537 | 26329 ft | 348 kts | 21° |
| 2026-04-20 10:29 | 54.18789 | -2.85889 | 26986 ft | 352 kts | 20° |
| 2026-04-20 10:29 | 54.21085 | -2.84185 | 27637 ft | 356 kts | 21° |
| 2026-04-20 10:29 | 54.23394 | -2.82470 | 28226 ft | 360 kts | 20° |
| 2026-04-20 10:30 | 54.25725 | -2.80736 | 28821 ft | 364 kts | 20° |
| 2026-04-20 10:30 | 54.28101 | -2.78967 | 29426 ft | 366 kts | 20° |
| 2026-04-20 10:30 | 54.30439 | -2.77223 | 29950 ft | 370 kts | 20° |
| 2026-04-20 10:30 | 54.32849 | -2.75425 | 30408 ft | 374 kts | 20° |
| 2026-04-20 10:31 | 54.35242 | -2.73637 | 30853 ft | 377 kts | 21° |
| 2026-04-20 10:31 | 54.37650 | -2.71835 | 31258 ft | 380 kts | 20° |
| 2026-04-20 10:31 | 54.40120 | -2.69985 | 31618 ft | 384 kts | 21° |
| 2026-04-20 10:31 | 54.42581 | -2.68139 | 31992 ft | 387 kts | 21° |
| 2026-04-20 10:32 | 54.45070 | -2.66268 | 32187 ft | 394 kts | 21° |
| 2026-04-20 10:32 | 54.47614 | -2.64515 | 32257 ft | 396 kts | 16° |
| 2026-04-20 10:32 | 54.52984 | -2.62945 | 32282 ft | 388 kts | 359° |
| 2026-04-20 10:33 | 54.58446 | -2.63252 | 32613 ft | 396 kts | 357° |
| 2026-04-20 10:33 | 54.61177 | -2.63421 | 33047 ft | 395 kts | 357° |
| 2026-04-20 10:33 | 54.63927 | -2.63595 | 33472 ft | 395 kts | 357° |
| 2026-04-20 10:34 | 54.66673 | -2.63771 | 33825 ft | 396 kts | 357° |
| 2026-04-20 10:34 | 54.69441 | -2.63950 | 34167 ft | 398 kts | 357° |
| 2026-04-20 10:34 | 54.72186 | -2.64130 | 34537 ft | 399 kts | 357° |
| 2026-04-20 10:35 | 54.77735 | -2.64499 | 35300 ft | 398 kts | 358° |
| 2026-04-20 10:35 | 54.80481 | -2.64684 | 35657 ft | 398 kts | 358° |
| 2026-04-20 10:35 | 54.83254 | -2.64871 | 35989 ft | 398 kts | 358° |
| 2026-04-20 10:35 | 54.86007 | -2.65059 | 36304 ft | 398 kts | 358° |
| 2026-04-20 10:36 | 54.88788 | -2.65249 | 36602 ft | 399 kts | 358° |
| 2026-04-20 10:36 | 54.91551 | -2.65438 | 36873 ft | 400 kts | 358° |
| 2026-04-20 10:36 | 54.94321 | -2.65629 | 37129 ft | 400 kts | 358° |
| 2026-04-20 10:36 | 54.97100 | -2.65822 | 37406 ft | 401 kts | 358° |
| 2026-04-20 10:37 | 54.99899 | -2.66016 | 37666 ft | 401 kts | 358° |
| 2026-04-20 10:37 | 55.02673 | -2.66209 | 37898 ft | 401 kts | 358° |
| 2026-04-20 10:37 | 55.05446 | -2.66402 | 38135 ft | 402 kts | 358° |
| 2026-04-20 10:37 | 55.08246 | -2.66598 | 38409 ft | 402 kts | 358° |
| 2026-04-20 10:38 | 55.11054 | -2.66795 | 38679 ft | 402 kts | 358° |
| 2026-04-20 10:38 | 55.13829 | -2.66990 | 38934 ft | 402 kts | 358° |
| 2026-04-20 10:38 | 55.16649 | -2.67188 | 39198 ft | 402 kts | 358° |
| 2026-04-20 10:38 | 55.19447 | -2.67385 | 39303 ft | 406 kts | 358° |
| 2026-04-20 10:39 | 55.22263 | -2.67583 | 39298 ft | 413 kts | 358° |
| 2026-04-20 10:39 | 55.28048 | -2.67991 | 39294 ft | 424 kts | 358° |
| 2026-04-20 10:40 | 55.34000 | -2.68410 | 39290 ft | 434 kts | 358° |
| 2026-04-20 10:40 | 55.40133 | -2.68717 | 39290 ft | 442 kts | 360° |
| 2026-04-20 10:41 | 55.46313 | -2.68834 | 39301 ft | 449 kts | 360° |
| 2026-04-20 10:41 | 55.52549 | -2.68958 | 39302 ft | 455 kts | 360° |
| 2026-04-20 10:42 | 55.58933 | -2.69088 | 39298 ft | 459 kts | 360° |
| 2026-04-20 10:42 | 55.65253 | -2.69221 | 39298 ft | 454 kts | 360° |
| 2026-04-20 10:43 | 55.71507 | -2.69356 | 39297 ft | 450 kts | 360° |
| 2026-04-20 10:43 | 55.77772 | -2.69493 | 39295 ft | 448 kts | 0° |
| 2026-04-20 10:44 | 55.83981 | -2.69630 | 39308 ft | 449 kts | 0° |
| 2026-04-20 10:44 | 55.90188 | -2.69768 | 39311 ft | 449 kts | 360° |
| 2026-04-20 10:45 | 55.96465 | -2.69908 | 39315 ft | 450 kts | 0° |
| 2026-04-20 10:45 | 56.02700 | -2.70048 | 39316 ft | 450 kts | 0° |
| 2026-04-20 10:46 | 56.08875 | -2.69014 | 39334 ft | 448 kts | 11° |
| 2026-04-20 10:46 | 56.14991 | -2.66926 | 39343 ft | 449 kts | 11° |
| 2026-04-20 10:47 | 56.21117 | -2.64847 | 39352 ft | 449 kts | 11° |
| 2026-04-20 10:47 | 56.27232 | -2.62773 | 39349 ft | 449 kts | 11° |
| 2026-04-20 10:48 | 56.33364 | -2.60692 | 39347 ft | 449 kts | 11° |
| 2026-04-20 10:48 | 56.39491 | -2.58611 | 39347 ft | 449 kts | 11° |
| 2026-04-20 10:49 | 56.45601 | -2.56532 | 39345 ft | 450 kts | 11° |
| 2026-04-20 10:49 | 56.51754 | -2.54434 | 39345 ft | 450 kts | 11° |
| 2026-04-20 10:50 | 56.57884 | -2.52339 | 39348 ft | 449 kts | 11° |
| 2026-04-20 10:50 | 56.63993 | -2.50245 | 39350 ft | 449 kts | 11° |
| 2026-04-20 10:51 | 56.70107 | -2.48144 | 39341 ft | 449 kts | 11° |
| 2026-04-20 10:51 | 56.76236 | -2.46031 | 39329 ft | 450 kts | 11° |
| 2026-04-20 10:52 | 56.82383 | -2.43906 | 39334 ft | 450 kts | 11° |
| 2026-04-20 10:52 | 56.88511 | -2.41780 | 39331 ft | 450 kts | 12° |
| 2026-04-20 10:53 | 56.94618 | -2.39654 | 39324 ft | 450 kts | 11° |
| 2026-04-20 10:53 | 57.00766 | -2.37508 | 39318 ft | 450 kts | 11° |
| 2026-04-20 10:54 | 57.06856 | -2.35375 | 39319 ft | 449 kts | 11° |
| 2026-04-20 10:54 | 57.12985 | -2.33221 | 39323 ft | 450 kts | 12° |
| 2026-04-20 10:55 | 57.19137 | -2.31052 | 39334 ft | 451 kts | 12° |
| 2026-04-20 10:55 | 57.25252 | -2.28889 | 39331 ft | 450 kts | 12° |
| 2026-04-20 10:56 | 57.31374 | -2.26716 | 39332 ft | 449 kts | 12° |
| 2026-04-20 10:56 | 57.37495 | -2.24536 | 39311 ft | 449 kts | 12° |
| 2026-04-20 10:57 | 57.43607 | -2.22352 | 39330 ft | 450 kts | 12° |
| 2026-04-20 10:57 | 57.49723 | -2.20159 | 39322 ft | 450 kts | 12° |
| 2026-04-20 10:58 | 57.55869 | -2.17948 | 39319 ft | 450 kts | 13° |
| 2026-04-20 10:58 | 57.61992 | -2.15737 | 39333 ft | 450 kts | 12° |
| 2026-04-20 10:59 | 57.68126 | -2.13516 | 39329 ft | 450 kts | 13° |
| 2026-04-20 10:59 | 57.74245 | -2.11292 | 39328 ft | 450 kts | 13° |
| 2026-04-20 11:00 | 57.80336 | -2.09070 | 39335 ft | 450 kts | 13° |
| 2026-04-20 11:00 | 57.86488 | -2.06818 | 39315 ft | 450 kts | 12° |
| 2026-04-20 11:01 | 57.92576 | -2.04583 | 39319 ft | 450 kts | 13° |
| 2026-04-20 11:01 | 57.98725 | -2.02317 | 39325 ft | 450 kts | 13° |
| 2026-04-20 11:02 | 58.04844 | -2.00054 | 39320 ft | 450 kts | 13° |
| 2026-04-20 11:02 | 58.10943 | -1.97792 | 39333 ft | 450 kts | 13° |
| 2026-04-20 11:03 | 58.17079 | -1.95507 | 39331 ft | 450 kts | 13° |
| 2026-04-20 11:03 | 58.23168 | -1.93232 | 39324 ft | 449 kts | 13° |
| 2026-04-20 11:04 | 58.29258 | -1.90948 | 39329 ft | 449 kts | 13° |
| 2026-04-20 11:04 | 58.35395 | -1.88639 | 39332 ft | 449 kts | 13° |
| 2026-04-20 11:05 | 58.41467 | -1.86345 | 38787 ft | 444 kts | 13° |
| 2026-04-20 11:05 | 58.44481 | -1.85204 | 38247 ft | 440 kts | 13° |
| 2026-04-20 11:05 | 58.47436 | -1.84083 | 37734 ft | 436 kts | 13° |
| 2026-04-20 11:05 | 58.50407 | -1.82953 | 37135 ft | 435 kts | 13° |
| 2026-04-20 11:06 | 58.53368 | -1.81825 | 36563 ft | 433 kts | 13° |
| 2026-04-20 11:06 | 58.56310 | -1.80702 | 35995 ft | 431 kts | 14° |
| 2026-04-20 11:06 | 58.59190 | -1.79600 | 35419 ft | 429 kts | 14° |
| 2026-04-20 11:06 | 58.62096 | -1.78487 | 34864 ft | 426 kts | 14° |
| 2026-04-20 11:07 | 58.64975 | -1.77382 | 34295 ft | 423 kts | 14° |
| 2026-04-20 11:07 | 58.67839 | -1.76281 | 33725 ft | 420 kts | 14° |
| 2026-04-20 11:07 | 58.70702 | -1.75179 | 33234 ft | 417 kts | 14° |
| 2026-04-20 11:07 | 58.73515 | -1.74092 | 32618 ft | 418 kts | 14° |
| 2026-04-20 11:08 | 58.76322 | -1.73007 | 32094 ft | 414 kts | 15° |
| 2026-04-20 11:08 | 58.79121 | -1.71923 | 31565 ft | 413 kts | 15° |
| 2026-04-20 11:08 | 58.81921 | -1.70836 | 30975 ft | 412 kts | 15° |
| 2026-04-20 11:08 | 58.84706 | -1.69755 | 30444 ft | 409 kts | 16° |
| 2026-04-20 11:09 | 58.87493 | -1.68670 | 29895 ft | 405 kts | 16° |
| 2026-04-20 11:09 | 58.90229 | -1.67605 | 29369 ft | 401 kts | 16° |
| 2026-04-20 11:09 | 58.92932 | -1.66550 | 28843 ft | 397 kts | 16° |
| 2026-04-20 11:09 | 58.95622 | -1.65500 | 28288 ft | 393 kts | 16° |
| 2026-04-20 11:10 | 58.98241 | -1.64478 | 27825 ft | 386 kts | 16° |
| 2026-04-20 11:10 | 59.00848 | -1.63457 | 27285 ft | 381 kts | 16° |
| 2026-04-20 11:10 | 59.03418 | -1.62451 | 26826 ft | 375 kts | 16° |
| 2026-04-20 11:10 | 59.05951 | -1.61458 | 26324 ft | 370 kts | 16° |
| 2026-04-20 11:11 | 59.08462 | -1.60471 | 25810 ft | 367 kts | 17° |
| 2026-04-20 11:11 | 59.10919 | -1.59505 | 25372 ft | 361 kts | 17° |
| 2026-04-20 11:11 | 59.13348 | -1.58548 | 24873 ft | 358 kts | 17° |
| 2026-04-20 11:11 | 59.15782 | -1.57588 | 24404 ft | 353 kts | 17° |
| 2026-04-20 11:12 | 59.18185 | -1.56640 | 23940 ft | 348 kts | 17° |
| 2026-04-20 11:12 | 59.20516 | -1.55718 | 23481 ft | 344 kts | 17° |
| 2026-04-20 11:12 | 59.22829 | -1.54803 | 23051 ft | 338 kts | 17° |
| 2026-04-20 11:12 | 59.25127 | -1.53892 | 22588 ft | 333 kts | 17° |
| 2026-04-20 11:13 | 59.27381 | -1.52999 | 22158 ft | 327 kts | 17° |
| 2026-04-20 11:13 | 59.29587 | -1.52124 | 21711 ft | 327 kts | 17° |
| 2026-04-20 11:13 | 59.31801 | -1.51241 | 21323 ft | 326 kts | 17° |
| 2026-04-20 11:13 | 59.34013 | -1.50354 | 20874 ft | 327 kts | 17° |
| 2026-04-20 11:14 | 59.36224 | -1.49470 | 20425 ft | 324 kts | 17° |
| 2026-04-20 11:14 | 59.38409 | -1.48596 | 20022 ft | 323 kts | 17° |
| 2026-04-20 11:14 | 59.40602 | -1.47715 | 19599 ft | 321 kts | 17° |
| 2026-04-20 11:14 | 59.42771 | -1.46845 | 19167 ft | 318 kts | 17° |
| 2026-04-20 11:15 | 59.44913 | -1.45977 | 18735 ft | 315 kts | 17° |
| 2026-04-20 11:15 | 59.47057 | -1.45101 | 18311 ft | 313 kts | 17° |
| 2026-04-20 11:15 | 59.49186 | -1.44246 | 17912 ft | 312 kts | 17° |
| 2026-04-20 11:15 | 59.51298 | -1.43395 | 17507 ft | 311 kts | 17° |
| 2026-04-20 11:16 | 59.53395 | -1.42549 | 17091 ft | 310 kts | 17° |
| 2026-04-20 11:16 | 59.55494 | -1.41701 | 16698 ft | 307 kts | 16° |
| 2026-04-20 11:16 | 59.57585 | -1.40855 | 16298 ft | 306 kts | 17° |
| 2026-04-20 11:16 | 59.59652 | -1.40017 | 15882 ft | 304 kts | 16° |
| 2026-04-20 11:17 | 59.61692 | -1.39191 | 15488 ft | 301 kts | 16° |
| 2026-04-20 11:17 | 59.63747 | -1.38357 | 15069 ft | 298 kts | 16° |
| 2026-04-20 11:17 | 59.65756 | -1.37541 | 14693 ft | 294 kts | 16° |
| 2026-04-20 11:17 | 59.67721 | -1.36742 | 14309 ft | 290 kts | 16° |
| 2026-04-20 11:18 | 59.69706 | -1.35928 | 13636 ft | 296 kts | 16° |
| 2026-04-20 11:18 | 59.71694 | -1.35116 | 13233 ft | 292 kts | 16° |
| 2026-04-20 11:18 | 59.73667 | -1.34310 | 12793 ft | 289 kts | 17° |
| 2026-04-20 11:18 | 59.75619 | -1.33513 | 12414 ft | 284 kts | 17° |
| 2026-04-20 11:19 | 59.77538 | -1.32728 | 12030 ft | 281 kts | 17° |
| 2026-04-20 11:19 | 59.79433 | -1.31952 | 11659 ft | 277 kts | 17° |
| 2026-04-20 11:19 | 59.81293 | -1.31190 | 11292 ft | 273 kts | 17° |
| 2026-04-20 11:19 | 59.83135 | -1.30434 | 10931 ft | 270 kts | 17° |
| 2026-04-20 11:20 | 59.84971 | -1.29680 | 10573 ft | 267 kts | 17° |
| 2026-04-20 11:20 | 59.86771 | -1.28940 | 10219 ft | 264 kts | 18° |
| 2026-04-20 11:20 | 59.88541 | -1.28202 | 9878 ft | 259 kts | 19° |
| 2026-04-20 11:20 | 59.90083 | -1.26649 | 9533 ft | 244 kts | 51° |
| 2026-04-20 11:21 | 59.90783 | -1.23753 | 9233 ft | 230 kts | 83° |
| 2026-04-20 11:21 | 59.90997 | -1.20645 | 8988 ft | 224 kts | 84° |
| 2026-04-20 11:21 | 59.91095 | -1.17645 | 8660 ft | 216 kts | 102° |
| 2026-04-20 11:21 | 59.90328 | -1.15158 | 8207 ft | 218 kts | 142° |
| 2026-04-20 11:22 | 59.88858 | -1.14408 | 7736 ft | 230 kts | 184° |
| 2026-04-20 11:22 | 59.87441 | -1.15887 | 7224 ft | 245 kts | 227° |
| 2026-04-20 11:22 | 59.86820 | -1.19045 | 6739 ft | 251 kts | 269° |
| 2026-04-20 11:22 | 59.87006 | -1.22431 | 6305 ft | 249 kts | 278° |
| 2026-04-20 11:23 | 59.87218 | -1.25866 | 5860 ft | 248 kts | 276° |
| 2026-04-20 11:23 | 59.87310 | -1.29270 | 5431 ft | 244 kts | 263° |
| 2026-04-20 11:23 | 59.86711 | -1.32265 | 5031 ft | 234 kts | 223° |
| 2026-04-20 11:23 | 59.85388 | -1.33797 | 4740 ft | 216 kts | 185° |
| 2026-04-20 11:24 | 59.83964 | -1.33512 | 4390 ft | 202 kts | 151° |
| 2026-04-20 11:24 | 59.82933 | -1.31767 | 4070 ft | 194 kts | 121° |
| 2026-04-20 11:24 | 59.82553 | -1.29268 | 3759 ft | 193 kts | 93° |
| 2026-04-20 11:24 | 59.82706 | -1.26612 | 3420 ft | 195 kts | 85° |
| 2026-04-20 11:25 | 59.82925 | -1.23870 | 3144 ft | 210 kts | 85° |
| 2026-04-20 11:25 | 59.83087 | -1.20909 | 3163 ft | 217 kts | 87° |
| 2026-04-20 11:25 | 59.83318 | -1.17924 | 3117 ft | 228 kts | 84° |
| 2026-04-20 11:25 | 59.83690 | -1.14750 | 2830 ft | 243 kts | 71° |
| 2026-04-20 11:26 | 59.84760 | -1.12222 | 2540 ft | 237 kts | 37° |
| 2026-04-20 11:26 | 59.86289 | -1.11352 | 2337 ft | 233 kts | 3° |
| 2026-04-20 11:26 | 59.87786 | -1.12358 | 2217 ft | 228 kts | 325° |
| 2026-04-20 11:26 | 59.88737 | -1.14925 | 2264 ft | 236 kts | 288° |
| 2026-04-20 11:27 | 59.88814 | -1.18109 | 2234 ft | 230 kts | 258° |
| 2026-04-20 11:27 | 59.88547 | -1.21222 | 2219 ft | 230 kts | 257° |
| 2026-04-20 11:27 | 59.88287 | -1.24362 | 2208 ft | 230 kts | 257° |
| 2026-04-20 11:27 | 59.88031 | -1.27490 | 2207 ft | 230 kts | 257° |
| 2026-04-20 11:28 | 59.87643 | -1.30541 | 2208 ft | 226 kts | 243° |
| 2026-04-20 11:28 | 59.86977 | -1.33348 | 2210 ft | 225 kts | 240° |
| 2026-04-20 11:28 | 59.86305 | -1.36144 | 2205 ft | 225 kts | 240° |
| 2026-04-20 11:28 | 59.85629 | -1.38975 | 2205 ft | 225 kts | 240° |
| 2026-04-20 11:29 | 59.84959 | -1.41778 | 2206 ft | 225 kts | 240° |
| 2026-04-20 11:29 | 59.84292 | -1.44577 | 2209 ft | 225 kts | 241° |
| 2026-04-20 11:29 | 59.83625 | -1.47369 | 2206 ft | 226 kts | 241° |
| 2026-04-20 11:29 | 59.82956 | -1.50177 | 2205 ft | 222 kts | 241° |
| 2026-04-20 11:30 | 59.82307 | -1.52907 | 2215 ft | 214 kts | 240° |
| 2026-04-20 11:30 | 59.81687 | -1.55513 | 2228 ft | 202 kts | 240° |
| 2026-04-20 11:30 | 59.81087 | -1.58023 | 2221 ft | 200 kts | 240° |
| 2026-04-20 11:30 | 59.80539 | -1.60537 | 2203 ft | 204 kts | 251° |
| 2026-04-20 11:31 | 59.80705 | -1.63305 | 2179 ft | 208 kts | 301° |
| 2026-04-20 11:31 | 59.81813 | -1.64986 | 2190 ft | 199 kts | 353° |
| 2026-04-20 11:31 | 59.83168 | -1.65042 | 2218 ft | 193 kts | 15° |
| 2026-04-20 11:31 | 59.84463 | -1.64467 | 2209 ft | 191 kts | 21° |
| 2026-04-20 11:32 | 59.85739 | -1.63795 | 2207 ft | 190 kts | 25° |
| 2026-04-20 11:32 | 59.86829 | -1.62481 | 2197 ft | 178 kts | 53° |
| 2026-04-20 11:32 | 59.87438 | -1.60446 | 2201 ft | 170 kts | 77° |
| 2026-04-20 11:32 | 59.87604 | -1.58153 | 2201 ft | 166 kts | 92° |
| 2026-04-20 11:33 | 59.87616 | -1.55865 | 2206 ft | 167 kts | 93° |
| 2026-04-20 11:33 | 59.87631 | -1.53552 | 2203 ft | 168 kts | 92° |
| 2026-04-20 11:33 | 59.87652 | -1.51231 | 2141 ft | 171 kts | 92° |
| 2026-04-20 11:33 | 59.87776 | -1.48919 | 1874 ft | 159 kts | 86° |
| 2026-04-20 11:34 | 59.87895 | -1.46978 | 1656 ft | 126 kts | 90° |
| 2026-04-20 11:34 | 59.87941 | -1.45387 | 1491 ft | 110 kts | 93° |
| 2026-04-20 11:34 | 59.87961 | -1.43886 | 1270 ft | 107 kts | 93° |
| 2026-04-20 11:34 | 59.87977 | -1.42442 | 1165 ft | 105 kts | 93° |
| 2026-04-20 11:35 | 59.87991 | -1.40985 | 1031 ft | 105 kts | 94° |
| 2026-04-20 11:35 | 59.88005 | -1.39540 | 909 ft | 105 kts | 93° |
| 2026-04-20 11:35 | 59.88018 | -1.38082 | 768 ft | 105 kts | 93° |
| 2026-04-20 11:35 | 59.88033 | -1.36636 | 638 ft | 106 kts | 92° |
| 2026-04-20 11:36 | 59.88047 | -1.35172 | 494 ft | 105 kts | 92° |
| 2026-04-20 11:36 | 59.88060 | -1.33704 | 362 ft | 106 kts | 92° |
| 2026-04-20 11:36 | 59.88072 | -1.32248 | 215 ft | 106 kts | 93° |
| 2026-04-20 11:36 | 59.88083 | -1.30767 | 76 ft | 107 kts | 90° |
| 2026-04-20 11:37 | 59.88147 | -1.29386 | 15 ft | 85 kts | 83° |
| 2026-04-20 11:37 | 59.88184 | -1.28693 | 24 ft | 6 kts | 359° |
| 2026-04-20 11:37 | 59.88186 | -1.28816 | 24 ft | 12 kts | 263° |
| 2026-04-20 11:38 | 59.88168 | -1.29045 | 21 ft | 20 kts | 260° |
| 2026-04-20 11:38 | 59.88089 | -1.29234 | 17 ft | 19 kts | 211° |
| 2026-04-20 11:38 | 59.87992 | -1.29369 | 17 ft | 15 kts | 216° |
| 2026-04-20 11:38 | 59.87944 | -1.29431 | 16 ft | 4 kts | 174° |
| 2026-04-20 11:39 | 59.87903 | -1.29388 | 16 ft | 8 kts | 152° |
| 2026-04-20 11:39 | 59.87889 | -1.29372 | 17 ft | 9 kts | 149° |
| 2026-04-20 11:40 | 59.87861 | -1.29337 | 17 ft | 11 kts | 146° |
| 2026-04-20 11:40 | 59.87790 | -1.29232 | 20 ft | 14 kts | 143° |
| 2026-04-20 11:40 | 59.87702 | -1.29101 | 22 ft | 17 kts | 142° |
| 2026-04-20 11:40 | 59.87614 | -1.28961 | 23 ft | 11 kts | 120° |
| 2026-04-20 11:41 | 59.87634 | -1.28852 | 26 ft | 6 kts | 54° |
| 2026-04-20 11:41 | 59.87657 | -1.28792 | 26 ft | 18 kts | 55° |
| 2026-04-20 11:41 | 59.87709 | -1.28648 | 25 ft | 4 kts | 55° |
| 2026-04-20 11:41 | 59.87736 | -1.28660 | 26 ft | 4 kts | 324° |
| 2026-04-20 11:42 | 59.87745 | -1.28665 | 26 ft | 0 kts | 8° |